Time;durP1;ratioP1;P1;durP2;ratioP2;P2;SDS_P1;SDS_P2;PMS_P1;PMS_P2;Temp;Humidity;BMP_temperature;BMP_pressure;BME280_temperature;BME280_humidity;BME280_pressure;Samples;Min_cycle;Max_cycle;Signal;HPM_P1;HPM_P2
2022/10/13 00:01:06;;;;;;;;;;;22.30;46.30;;;;;;494205;241;1208;-54
2022/10/13 00:03:07;;;;;;;;;;;22.30;46.30;;;;;;493976;241;1206;-53
2022/10/13 00:05:09;;;;;;;;;;;22.30;46.20;;;;;;494255;241;2186;-54
2022/10/13 00:07:10;;;;;;;;;;;22.30;46.20;;;;;;493789;241;1330;-54
2022/10/13 00:09:11;;;;;;;;;;;22.30;46.30;;;;;;493839;241;1266;-54
2022/10/13 00:11:13;;;;;;;;;;;22.30;46.20;;;;;;493791;241;1212;-54
2022/10/13 00:13:14;;;;;;;;;;;22.30;46.20;;;;;;494249;241;1181;-53
2022/10/13 00:15:15;;;;;;;;;;;22.30;46.30;;;;;;493758;241;1289;-54
2022/10/13 00:17:17;;;;;;;;;;;22.30;46.40;;;;;;493767;241;1576;-54
2022/10/13 00:19:18;;;;;;;;;;;22.30;46.30;;;;;;493825;241;1200;-54
2022/10/13 00:21:19;;;;;;;;;;;22.30;46.30;;;;;;494228;241;1238;-54
2022/10/13 00:23:21;;;;;;;;;;;22.30;46.30;;;;;;493896;241;1385;-54
2022/10/13 00:25:22;;;;;;;;;;;22.30;46.30;;;;;;494175;241;2156;-53
2022/10/13 00:27:23;;;;;;;;;;;22.30;46.40;;;;;;494186;241;1378;-54
2022/10/13 00:29:24;;;;;;;;;;;22.30;46.30;;;;;;494087;241;1297;-54
2022/10/13 00:31:26;;;;;;;;;;;22.30;46.30;;;;;;493851;241;1345;-54
2022/10/13 00:33:27;;;;;;;;;;;22.30;46.40;;;;;;494220;241;1365;-54
2022/10/13 00:35:28;;;;;;;;;;;22.30;46.40;;;;;;493993;241;1323;-54
2022/10/13 00:37:30;;;;;;;;;;;22.30;46.40;;;;;;494042;241;1351;-53
2022/10/13 00:39:31;;;;;;;;;;;22.30;46.40;;;;;;493854;241;1314;-54
2022/10/13 00:41:32;;;;;;;;;;;22.30;46.50;;;;;;494257;241;1201;-54
2022/10/13 00:43:34;;;;;;;;;;;22.30;46.40;;;;;;494239;241;1215;-54
2022/10/13 00:45:35;;;;;;;;;;;22.30;46.40;;;;;;493847;241;2174;-54
2022/10/13 00:47:36;;;;;;;;;;;22.30;46.50;;;;;;493772;241;1645;-54
2022/10/13 00:49:38;;;;;;;;;;;22.30;46.40;;;;;;494099;241;1246;-54
2022/10/13 00:51:39;;;;;;;;;;;22.30;46.40;;;;;;494259;241;1371;-54
2022/10/13 00:53:40;;;;;;;;;;;22.30;46.40;;;;;;493809;241;1241;-54
2022/10/13 00:55:42;;;;;;;;;;;22.30;46.40;;;;;;494135;241;1294;-54
2022/10/13 00:57:43;;;;;;;;;;;22.30;46.40;;;;;;494252;241;1233;-54
2022/10/13 00:59:44;;;;;;;;;;;22.30;46.50;;;;;;494064;241;1272;-54
2022/10/13 01:01:46;;;;;;;;;;;22.30;46.50;;;;;;494253;241;1207;-54
2022/10/13 01:03:47;;;;;;;;;;;22.30;46.40;;;;;;493762;241;1269;-54
2022/10/13 01:05:48;;;;;;;;;;;22.30;46.50;;;;;;493896;241;2152;-53
2022/10/13 01:07:50;;;;;;;;;;;22.30;46.50;;;;;;494200;241;1288;-54
2022/10/13 01:09:51;;;;;;;;;;;22.30;46.60;;;;;;493788;241;1268;-53
2022/10/13 01:11:53;;;;;;;;;;;22.30;46.50;;;;;;494133;241;1234;-54
2022/10/13 01:13:54;;;;;;;;;;;22.30;46.50;;;;;;494247;241;1247;-54
2022/10/13 01:15:55;;;;;;;;;;;22.30;46.50;;;;;;493839;241;1219;-53
2022/10/13 01:17:56;;;;;;;;;;;22.30;46.50;;;;;;493737;241;1242;-54
2022/10/13 01:19:58;;;;;;;;;;;22.30;46.50;;;;;;494245;241;1221;-54
2022/10/13 01:21:59;;;;;;;;;;;22.30;46.50;;;;;;493792;241;1163;-54
2022/10/13 01:24:00;;;;;;;;;;;22.30;46.50;;;;;;493864;241;1321;-54
2022/10/13 01:26:01;;;;;;;;;;;22.30;46.50;;;;;;493794;241;2190;-53
2022/10/13 01:28:03;;;;;;;;;;;22.30;46.50;;;;;;493792;241;1205;-54
2022/10/13 01:30:04;;;;;;;;;;;22.30;46.60;;;;;;493744;241;1185;-54
2022/10/13 01:32:05;;;;;;;;;;;22.30;46.50;;;;;;494115;241;1218;-54
2022/10/13 01:34:07;;;;;;;;;;;22.30;46.50;;;;;;493802;241;1256;-54
2022/10/13 01:36:08;;;;;;;;;;;22.30;46.60;;;;;;493795;241;1182;-54
2022/10/13 01:38:10;;;;;;;;;;;22.30;46.60;;;;;;493872;241;1507;-54
2022/10/13 01:40:11;;;;;;;;;;;22.30;46.70;;;;;;493776;241;1604;-53
2022/10/13 01:42:12;;;;;;;;;;;22.30;46.50;;;;;;494275;241;1102;-54
2022/10/13 01:44:15;;;;;;;;;;;22.30;46.60;;;;;;493837;241;1062;-54
2022/10/13 01:46:15;;;;;;;;;;;22.30;46.70;;;;;;493861;241;2199;-54
2022/10/13 01:48:16;;;;;;;;;;;22.20;46.70;;;;;;493984;241;1205;-54
2022/10/13 01:50:18;;;;;;;;;;;22.30;46.70;;;;;;493785;241;1214;-53
2022/10/13 01:52:19;;;;;;;;;;;22.20;46.70;;;;;;494259;241;1221;-54
2022/10/13 01:54:20;;;;;;;;;;;22.20;46.70;;;;;;494135;241;1262;-54
2022/10/13 01:56:22;;;;;;;;;;;22.20;46.70;;;;;;494230;241;1429;-53
2022/10/13 01:58:23;;;;;;;;;;;22.30;46.70;;;;;;494273;241;1193;-54
2022/10/13 02:00:24;;;;;;;;;;;22.30;46.70;;;;;;494106;241;1200;-53
2022/10/13 02:02:26;;;;;;;;;;;22.30;46.70;;;;;;494200;241;1240;-53
2022/10/13 02:04:27;;;;;;;;;;;22.30;46.70;;;;;;494261;241;1170;-54
2022/10/13 02:06:29;;;;;;;;;;;22.30;46.70;;;;;;493825;241;2163;-54
2022/10/13 02:08:30;;;;;;;;;;;22.30;46.70;;;;;;494277;241;1244;-53
2022/10/13 02:10:31;;;;;;;;;;;22.20;46.70;;;;;;493822;241;1145;-54
2022/10/13 02:12:33;;;;;;;;;;;22.20;46.70;;;;;;494202;241;1233;-54
2022/10/13 02:14:34;;;;;;;;;;;22.20;46.70;;;;;;493814;241;1126;-54
2022/10/13 02:16:35;;;;;;;;;;;22.30;46.70;;;;;;493819;241;1190;-53
2022/10/13 02:18:37;;;;;;;;;;;22.20;46.70;;;;;;494039;241;1168;-54
2022/10/13 02:20:38;;;;;;;;;;;22.20;46.70;;;;;;493809;241;1173;-54
2022/10/13 02:22:39;;;;;;;;;;;22.30;46.70;;;;;;494242;241;1236;-54
2022/10/13 02:24:41;;;;;;;;;;;22.30;46.70;;;;;;494289;241;1273;-54
2022/10/13 02:26:42;;;;;;;;;;;22.30;46.70;;;;;;494265;241;2205;-54
2022/10/13 02:28:43;;;;;;;;;;;22.20;46.70;;;;;;494274;241;1196;-54
2022/10/13 02:30:45;;;;;;;;;;;22.20;46.70;;;;;;494076;241;1258;-53
2022/10/13 02:32:46;;;;;;;;;;;22.20;46.70;;;;;;493795;241;1207;-54
2022/10/13 02:34:47;;;;;;;;;;;22.30;46.70;;;;;;494244;241;1279;-54
2022/10/13 02:36:49;;;;;;;;;;;22.30;46.70;;;;;;494143;241;1301;-54
2022/10/13 02:38:50;;;;;;;;;;;22.30;46.80;;;;;;494174;241;1285;-54
2022/10/13 02:40:53;;;;;;;;;;;22.20;46.70;;;;;;494171;241;1249;-54
2022/10/13 02:42:53;;;;;;;;;;;22.30;46.70;;;;;;493879;241;2360;-54
2022/10/13 02:44:54;;;;;;;;;;;22.30;46.70;;;;;;493984;241;1157;-54
2022/10/13 02:46:55;;;;;;;;;;;22.30;46.70;;;;;;493769;241;2175;-54
2022/10/13 02:48:57;;;;;;;;;;;22.20;46.70;;;;;;493778;241;1324;-53
2022/10/13 02:50:58;;;;;;;;;;;22.20;46.70;;;;;;494228;241;1255;-54
2022/10/13 02:52:59;;;;;;;;;;;22.20;46.70;;;;;;494236;241;1324;-54
2022/10/13 02:55:01;;;;;;;;;;;22.20;46.70;;;;;;494254;241;1255;-54
2022/10/13 02:57:02;;;;;;;;;;;22.30;46.70;;;;;;494014;241;1676;-54
2022/10/13 02:59:03;;;;;;;;;;;22.30;46.70;;;;;;493907;241;1224;-54
2022/10/13 03:01:05;;;;;;;;;;;22.30;46.70;;;;;;493764;241;1206;-54
2022/10/13 03:03:06;;;;;;;;;;;22.20;46.70;;;;;;494240;241;1409;-54
2022/10/13 03:05:07;;;;;;;;;;;22.30;46.70;;;;;;494241;241;1196;-53
2022/10/13 03:07:08;;;;;;;;;;;22.30;46.70;;;;;;494279;241;2163;-53
2022/10/13 03:09:10;;;;;;;;;;;22.30;46.70;;;;;;493964;241;1254;-54
2022/10/13 03:11:11;;;;;;;;;;;22.20;46.70;;;;;;494281;241;1225;-54
2022/10/13 03:13:12;;;;;;;;;;;22.20;46.80;;;;;;494295;241;1189;-54
2022/10/13 03:15:14;;;;;;;;;;;22.20;46.70;;;;;;493935;241;1264;-54
2022/10/13 03:17:15;;;;;;;;;;;22.20;46.70;;;;;;493878;241;1245;-54
2022/10/13 03:19:17;;;;;;;;;;;22.20;46.70;;;;;;494005;241;1623;-54
2022/10/13 03:21:18;;;;;;;;;;;22.30;46.80;;;;;;494074;241;1200;-54
2022/10/13 03:23:19;;;;;;;;;;;22.20;46.80;;;;;;494259;241;1170;-54
2022/10/13 03:25:20;;;;;;;;;;;22.20;46.80;;;;;;494283;241;1368;-54
2022/10/13 03:27:22;;;;;;;;;;;22.30;46.80;;;;;;494237;241;2190;-54
2022/10/13 03:29:23;;;;;;;;;;;22.20;46.70;;;;;;494099;241;1648;-53
2022/10/13 03:31:24;;;;;;;;;;;22.20;46.60;;;;;;494087;241;1386;-54
2022/10/13 03:33:26;;;;;;;;;;;22.30;46.50;;;;;;494114;241;1289;-54
2022/10/13 03:35:27;;;;;;;;;;;22.30;46.30;;;;;;494242;241;1284;-53
2022/10/13 03:37:28;;;;;;;;;;;22.30;46.30;;;;;;493858;241;1326;-54
2022/10/13 03:39:30;;;;;;;;;;;22.30;46.20;;;;;;494261;241;1189;-53
2022/10/13 03:41:31;;;;;;;;;;;22.30;46.00;;;;;;493894;241;1242;-54
2022/10/13 03:43:32;;;;;;;;;;;22.30;45.90;;;;;;494265;241;1212;-54
2022/10/13 03:45:34;;;;;;;;;;;22.40;45.90;;;;;;493818;241;2156;-54
2022/10/13 03:47:35;;;;;;;;;;;22.40;45.80;;;;;;493874;241;1242;-54
2022/10/13 03:49:36;;;;;;;;;;;22.40;45.80;;;;;;494079;241;1201;-54
2022/10/13 03:51:38;;;;;;;;;;;22.40;45.60;;;;;;494259;241;1195;-54
2022/10/13 03:53:39;;;;;;;;;;;22.40;45.60;;;;;;494291;241;1117;-54
2022/10/13 03:55:40;;;;;;;;;;;22.40;45.50;;;;;;493834;241;1081;-54
2022/10/13 03:57:42;;;;;;;;;;;22.40;45.40;;;;;;493828;241;1126;-53
2022/10/13 03:59:43;;;;;;;;;;;22.40;45.30;;;;;;494267;241;1163;-54
2022/10/13 04:01:44;;;;;;;;;;;22.40;45.40;;;;;;494034;241;1218;-54
2022/10/13 04:03:46;;;;;;;;;;;22.40;45.40;;;;;;494277;241;1269;-54
2022/10/13 04:05:47;;;;;;;;;;;22.40;45.30;;;;;;494198;241;2191;-54
2022/10/13 04:07:48;;;;;;;;;;;22.40;45.20;;;;;;494224;241;1278;-54
2022/10/13 04:09:50;;;;;;;;;;;22.40;45.00;;;;;;494263;241;1420;-54
2022/10/13 04:11:51;;;;;;;;;;;22.50;45.10;;;;;;493783;241;1364;-54
2022/10/13 04:13:52;;;;;;;;;;;22.40;45.00;;;;;;493842;241;1402;-54
2022/10/13 04:15:53;;;;;;;;;;;22.40;45.00;;;;;;494153;241;1232;-54
2022/10/13 04:17:55;;;;;;;;;;;22.40;44.90;;;;;;493762;241;1354;-54
2022/10/13 04:19:56;;;;;;;;;;;22.40;44.80;;;;;;493783;241;1244;-54
2022/10/13 04:21:58;;;;;;;;;;;22.40;44.90;;;;;;494151;241;1213;-54
2022/10/13 04:23:59;;;;;;;;;;;22.40;44.80;;;;;;494190;241;1377;-54
2022/10/13 04:26:00;;;;;;;;;;;22.40;44.70;;;;;;493716;241;2187;-54
2022/10/13 04:28:01;;;;;;;;;;;22.50;44.70;;;;;;493994;241;1236;-53
2022/10/13 04:30:03;;;;;;;;;;;22.40;44.60;;;;;;494186;241;1210;-54
2022/10/13 04:32:04;;;;;;;;;;;22.40;44.50;;;;;;493794;241;1449;-54
2022/10/13 04:34:06;;;;;;;;;;;22.50;44.60;;;;;;493714;241;1301;-54
2022/10/13 04:36:07;;;;;;;;;;;22.50;44.50;;;;;;493749;241;2314;-54
2022/10/13 04:38:08;;;;;;;;;;;22.50;44.50;;;;;;493761;241;1252;-54
2022/10/13 04:40:09;;;;;;;;;;;22.40;44.40;;;;;;493760;241;1257;-54
2022/10/13 04:42:11;;;;;;;;;;;22.50;44.40;;;;;;494262;241;1310;-54
2022/10/13 04:44:12;;;;;;;;;;;22.50;44.30;;;;;;494252;241;1197;-54
2022/10/13 04:46:13;;;;;;;;;;;22.50;44.30;;;;;;494268;241;2152;-54
2022/10/13 04:48:15;;;;;;;;;;;22.50;44.30;;;;;;493865;241;1240;-54
2022/10/13 04:50:16;;;;;;;;;;;22.50;44.30;;;;;;494136;241;1203;-54
2022/10/13 04:52:17;;;;;;;;;;;22.50;44.20;;;;;;493857;241;1168;-54
2022/10/13 04:54:19;;;;;;;;;;;22.50;44.10;;;;;;493799;241;1305;-54
2022/10/13 04:56:20;;;;;;;;;;;22.50;44.10;;;;;;494245;241;1528;-54
2022/10/13 04:58:21;;;;;;;;;;;22.50;44.20;;;;;;493789;241;1231;-54
2022/10/13 05:00:23;;;;;;;;;;;22.50;44.00;;;;;;493778;241;1356;-54
2022/10/13 05:02:24;;;;;;;;;;;22.50;44.10;;;;;;494052;241;1130;-54
2022/10/13 05:04:25;;;;;;;;;;;22.50;44.00;;;;;;493777;241;1340;-54
2022/10/13 05:06:27;;;;;;;;;;;22.50;44.00;;;;;;493760;241;2223;-54
2022/10/13 05:08:28;;;;;;;;;;;22.50;44.00;;;;;;493756;241;1167;-54
2022/10/13 05:10:30;;;;;;;;;;;22.50;43.90;;;;;;493898;241;1149;-54
2022/10/13 05:12:31;;;;;;;;;;;22.50;43.90;;;;;;493775;241;1244;-54
2022/10/13 05:14:33;;;;;;;;;;;22.50;43.80;;;;;;494187;241;1140;-54
2022/10/13 05:16:34;;;;;;;;;;;22.50;43.90;;;;;;493846;241;1949;-54
2022/10/13 05:18:35;;;;;;;;;;;22.50;43.80;;;;;;493787;241;1222;-54
2022/10/13 05:20:36;;;;;;;;;;;22.60;43.80;;;;;;493773;241;1173;-54
2022/10/13 05:22:38;;;;;;;;;;;22.50;43.80;;;;;;494152;241;1450;-54
2022/10/13 05:24:39;;;;;;;;;;;22.50;44.00;;;;;;493810;241;1396;-54
2022/10/13 05:26:40;;;;;;;;;;;22.40;44.20;;;;;;493726;241;2151;-53
2022/10/13 05:28:42;;;;;;;;;;;22.40;44.30;;;;;;494037;241;1253;-53
2022/10/13 05:30:43;;;;;;;;;;;22.40;44.40;;;;;;493662;241;1279;-54
2022/10/13 05:32:44;;;;;;;;;;;22.40;44.60;;;;;;493703;241;1210;-54
2022/10/13 05:34:46;;;;;;;;;;;22.40;44.70;;;;;;493724;241;1220;-54
2022/10/13 05:36:47;;;;;;;;;;;22.40;44.80;;;;;;493643;241;1278;-54
2022/10/13 05:38:48;;;;;;;;;;;22.40;44.90;;;;;;493473;241;1267;-54
2022/10/13 05:40:50;;;;;;;;;;;22.30;44.90;;;;;;493523;241;1224;-54
2022/10/13 05:42:51;;;;;;;;;;;22.30;44.90;;;;;;493945;241;1232;-53
2022/10/13 05:44:52;;;;;;;;;;;22.40;45.00;;;;;;493877;241;1252;-54
2022/10/13 05:46:54;;;;;;;;;;;22.30;44.90;;;;;;493634;241;2144;-54
2022/10/13 05:48:55;;;;;;;;;;;22.30;45.00;;;;;;493770;241;1589;-53
2022/10/13 05:50:56;;;;;;;;;;;22.40;45.00;;;;;;493528;241;1162;-54
2022/10/13 05:52:58;;;;;;;;;;;22.30;45.00;;;;;;494245;241;1144;-54
2022/10/13 05:54:59;;;;;;;;;;;22.30;45.00;;;;;;493445;241;1203;-54
2022/10/13 05:57:00;;;;;;;;;;;22.30;45.00;;;;;;493730;241;1267;-54
2022/10/13 05:59:02;;;;;;;;;;;22.30;45.10;;;;;;493814;241;1196;-54
2022/10/13 06:01:03;;;;;;;;;;;22.30;45.10;;;;;;493996;241;1193;-54
2022/10/13 06:03:05;;;;;;;;;;;22.30;45.10;;;;;;493630;241;1180;-54
2022/10/13 06:05:07;;;;;;;;;;;22.30;45.10;;;;;;493604;241;1339;-54
2022/10/13 06:07:07;;;;;;;;;;;22.30;45.20;;;;;;493786;241;2163;-54
2022/10/13 06:09:09;;;;;;;;;;;22.30;45.20;;;;;;493943;241;1263;-54
2022/10/13 06:11:10;;;;;;;;;;;22.40;45.20;;;;;;494027;241;1327;-54
2022/10/13 06:13:11;;;;;;;;;;;22.40;45.20;;;;;;493890;241;1196;-53
2022/10/13 06:15:13;;;;;;;;;;;22.30;45.20;;;;;;493563;241;1199;-54
2022/10/13 06:17:14;;;;;;;;;;;22.30;45.30;;;;;;494004;241;1249;-54
2022/10/13 06:19:15;;;;;;;;;;;22.30;45.20;;;;;;493657;241;1209;-54
2022/10/13 06:21:16;;;;;;;;;;;22.30;45.30;;;;;;493784;241;1245;-53
2022/10/13 06:23:18;;;;;;;;;;;22.40;45.30;;;;;;493641;241;1271;-54
2022/10/13 06:25:19;;;;;;;;;;;22.40;45.30;;;;;;493765;241;1318;-53
2022/10/13 06:27:21;;;;;;;;;;;22.40;45.30;;;;;;493531;241;2187;-54
2022/10/13 06:29:22;;;;;;;;;;;22.40;45.30;;;;;;493834;241;1280;-53
2022/10/13 06:31:23;;;;;;;;;;;22.40;45.30;;;;;;493699;241;1197;-54
2022/10/13 06:33:24;;;;;;;;;;;22.40;45.30;;;;;;493624;241;1203;-54
2022/10/13 06:35:26;;;;;;;;;;;22.40;45.30;;;;;;493554;241;1244;-54
2022/10/13 06:37:27;;;;;;;;;;;22.30;45.30;;;;;;493752;241;1278;-54
2022/10/13 06:39:28;;;;;;;;;;;22.40;45.40;;;;;;493592;241;1206;-54
2022/10/13 06:41:30;;;;;;;;;;;22.40;45.40;;;;;;493555;241;1301;-54
2022/10/13 06:43:31;;;;;;;;;;;22.40;45.40;;;;;;493684;241;1244;-54
2022/10/13 06:45:32;;;;;;;;;;;22.30;45.40;;;;;;493484;241;1231;-54
2022/10/13 06:47:34;;;;;;;;;;;22.40;45.40;;;;;;493383;241;2191;-54
2022/10/13 06:49:35;;;;;;;;;;;22.40;45.50;;;;;;493394;241;1214;-54
2022/10/13 06:51:36;;;;;;;;;;;22.30;45.50;;;;;;493249;241;1625;-54
2022/10/13 06:53:38;;;;;;;;;;;22.40;45.50;;;;;;493672;241;1748;-54
2022/10/13 06:55:41;;;;;;;;;;;22.40;45.50;;;;;;493576;241;1582;-54
2022/10/13 06:57:40;;;;;;;;;;;22.30;45.50;;;;;;493466;241;1386;-54
2022/10/13 06:59:43;;;;;;;;;;;22.30;45.50;;;;;;493342;241;1257;-54
2022/10/13 07:01:43;;;;;;;;;;;22.40;45.60;;;;;;493327;241;2083;-54
2022/10/13 07:03:44;;;;;;;;;;;22.40;45.50;;;;;;493445;241;1265;-53
2022/10/13 07:05:46;;;;;;;;;;;22.40;45.50;;;;;;493547;241;1192;-54
2022/10/13 07:07:47;;;;;;;;;;;22.40;45.50;;;;;;493427;241;2179;-53
2022/10/13 07:09:48;;;;;;;;;;;22.40;45.50;;;;;;493552;241;1184;-54
2022/10/13 07:11:50;;;;;;;;;;;22.40;45.60;;;;;;493428;241;1222;-54
2022/10/13 07:13:51;;;;;;;;;;;22.40;45.60;;;;;;493204;241;1203;-54
2022/10/13 07:15:52;;;;;;;;;;;22.40;45.60;;;;;;493326;241;1163;-53
2022/10/13 07:17:54;;;;;;;;;;;22.40;45.70;;;;;;493695;241;1275;-53
2022/10/13 07:19:55;;;;;;;;;;;22.40;45.70;;;;;;493453;241;1335;-54
2022/10/13 07:21:57;;;;;;;;;;;22.40;45.70;;;;;;493789;241;1267;-53
2022/10/13 07:23:58;;;;;;;;;;;22.40;45.70;;;;;;493383;241;1135;-54
2022/10/13 07:26:00;;;;;;;;;;;22.40;45.70;;;;;;493410;241;1233;-53
2022/10/13 07:28:01;;;;;;;;;;;22.40;45.70;;;;;;493471;241;2186;-54
2022/10/13 07:30:02;;;;;;;;;;;22.40;45.70;;;;;;493247;241;1551;-54
2022/10/13 07:32:04;;;;;;;;;;;22.40;45.70;;;;;;493824;241;1205;-53
2022/10/13 07:34:05;;;;;;;;;;;22.40;45.80;;;;;;493660;241;1252;-53
2022/10/13 07:36:06;;;;;;;;;;;22.40;45.80;;;;;;493514;241;1224;-54
2022/10/13 07:38:07;;;;;;;;;;;22.40;45.80;;;;;;493587;241;1196;-54
2022/10/13 07:40:09;;;;;;;;;;;22.40;45.80;;;;;;493294;241;1773;-53
2022/10/13 07:42:10;;;;;;;;;;;22.40;45.80;;;;;;493033;241;1177;-54
2022/10/13 07:44:11;;;;;;;;;;;22.40;45.80;;;;;;493117;241;1163;-54
2022/10/13 07:46:13;;;;;;;;;;;22.40;45.80;;;;;;493092;241;1273;-54
2022/10/13 07:48:14;;;;;;;;;;;22.40;45.80;;;;;;493227;241;2187;-54
2022/10/13 07:50:15;;;;;;;;;;;22.40;45.90;;;;;;493325;241;1192;-54
2022/10/13 07:52:17;;;;;;;;;;;22.40;45.90;;;;;;493601;241;1161;-54
2022/10/13 07:54:18;;;;;;;;;;;22.40;45.90;;;;;;493631;241;1265;-54
2022/10/13 07:56:19;;;;;;;;;;;22.40;45.90;;;;;;493346;241;1246;-54
2022/10/13 07:58:21;;;;;;;;;;;22.40;46.00;;;;;;493037;241;1182;-53
2022/10/13 08:00:22;;;;;;;;;;;22.40;46.00;;;;;;493372;241;1504;-53
2022/10/13 08:02:23;;;;;;;;;;;22.40;46.00;;;;;;493348;241;1222;-54
2022/10/13 08:50:29;;;;;;;;;;;22.40;46.30;;;;;;495260;239;2590;-53
2022/10/13 08:52:31;;;;;;;;;;;22.40;46.40;;;;;;499794;238;1260;-54
2022/10/13 08:54:32;;;;;;;;;;;22.40;46.40;;;;;;499993;238;1339;-54
2022/10/13 08:56:33;;;;;;;;;;;22.40;46.40;;;;;;500048;238;1065;-54
2022/10/13 08:58:35;;;;;;;;;;;22.40;46.40;;;;;;500143;238;1086;-53
2022/10/13 09:00:36;;;;;;;;;;;22.40;46.50;;;;;;500174;238;1048;-54
2022/10/13 09:02:37;;;;;;;;;;;22.40;46.40;;;;;;500223;238;1174;-54
2022/10/13 09:04:40;;;;;;;;;;;22.40;46.50;;;;;;500137;238;1369;-54
2022/10/13 09:06:40;;;;;;;;;;;22.40;46.50;;;;;;500103;238;2238;-54
2022/10/13 09:08:41;;;;;;;;;;;22.40;46.50;;;;;;500075;238;2207;-54
2022/10/13 09:10:43;;;;;;;;;;;22.40;46.50;;;;;;500078;238;1099;-54
2022/10/13 09:12:44;;;;;;;;;;;22.50;46.50;;;;;;500265;238;1116;-53
2022/10/13 09:14:45;;;;;;;;;;;22.40;46.50;;;;;;500016;238;1263;-54
2022/10/13 09:16:47;;;;;;;;;;;22.40;46.50;;;;;;500167;238;1089;-54
2022/10/13 09:18:48;;;;;;;;;;;22.40;46.50;;;;;;500159;238;1076;-54
2022/10/13 09:20:49;;;;;;;;;;;22.50;46.50;;;;;;500064;238;1232;-54
2022/10/13 09:22:51;;;;;;;;;;;22.50;46.50;;;;;;500200;238;1383;-54
2022/10/13 09:24:52;;;;;;;;;;;22.40;46.50;;;;;;500376;238;1264;-54
2022/10/13 09:26:53;;;;;;;;;;;22.50;46.60;;;;;;499939;238;1207;-54
2022/10/13 09:28:54;;;;;;;;;;;22.40;46.60;;;;;;500174;238;2148;-54
2022/10/13 09:30:56;;;;;;;;;;;22.40;46.70;;;;;;499884;238;1173;-54
2022/10/13 09:32:57;;;;;;;;;;;22.50;46.80;;;;;;500077;238;1335;-54
2022/10/13 09:34:58;;;;;;;;;;;22.40;46.70;;;;;;500080;238;1189;-54
2022/10/13 09:37:00;;;;;;;;;;;22.40;46.80;;;;;;500056;238;1186;-54
2022/10/13 09:39:01;;;;;;;;;;;22.40;46.80;;;;;;499864;238;1170;-54
2022/10/13 09:41:03;;;;;;;;;;;22.40;46.80;;;;;;500071;238;1130;-54
2022/10/13 09:43:04;;;;;;;;;;;22.40;46.80;;;;;;500080;238;1128;-54
2022/10/13 09:45:05;;;;;;;;;;;22.40;46.80;;;;;;500011;238;1103;-54
2022/10/13 09:47:08;;;;;;;;;;;22.40;46.80;;;;;;500179;238;1050;-54
2022/10/13 09:49:08;;;;;;;;;;;22.40;46.80;;;;;;499889;238;2164;-54
2022/10/13 09:51:09;;;;;;;;;;;22.40;46.80;;;;;;500152;238;1117;-55
2022/10/13 09:53:11;;;;;;;;;;;22.40;46.80;;;;;;500243;238;1053;-53
2022/10/13 09:55:12;;;;;;;;;;;22.40;46.80;;;;;;500102;238;1215;-53
2022/10/13 09:57:13;;;;;;;;;;;22.50;46.80;;;;;;500046;238;1131;-54
2022/10/13 09:59:15;;;;;;;;;;;22.50;46.80;;;;;;500284;238;1313;-54
2022/10/13 10:01:16;;;;;;;;;;;22.40;46.80;;;;;;500074;238;1139;-54
2022/10/13 10:03:17;;;;;;;;;;;22.40;46.80;;;;;;500270;238;1132;-54
2022/10/13 10:05:19;;;;;;;;;;;22.40;46.90;;;;;;500243;238;1171;-53
2022/10/13 10:07:20;;;;;;;;;;;22.40;46.80;;;;;;500221;238;1237;-54
2022/10/13 10:09:21;;;;;;;;;;;22.40;46.90;;;;;;500207;238;2199;-54
2022/10/13 10:11:23;;;;;;;;;;;22.40;46.90;;;;;;500081;238;1153;-53
2022/10/13 10:13:24;;;;;;;;;;;22.40;46.90;;;;;;500125;238;1141;-53
2022/10/13 10:15:26;;;;;;;;;;;22.40;46.90;;;;;;500339;238;1117;-54
2022/10/13 10:17:27;;;;;;;;;;;22.40;46.90;;;;;;500328;238;1132;-54
2022/10/13 10:19:29;;;;;;;;;;;22.50;46.90;;;;;;500240;238;1221;-54
2022/10/13 10:21:30;;;;;;;;;;;22.50;46.90;;;;;;500336;238;2162;-53
2022/10/13 10:23:31;;;;;;;;;;;22.50;46.80;;;;;;500510;238;1144;-54
2022/10/13 10:25:32;;;;;;;;;;;22.50;46.80;;;;;;500672;238;1071;-53
2022/10/13 10:27:34;;;;;;;;;;;22.50;46.80;;;;;;500150;238;1074;-54
2022/10/13 10:29:35;;;;;;;;;;;22.50;46.60;;;;;;500036;238;2185;-54
2022/10/13 10:31:36;;;;;;;;;;;22.50;46.40;;;;;;500264;238;1080;-53
2022/10/13 10:33:38;;;;;;;;;;;22.50;46.40;;;;;;500096;238;1070;-54
2022/10/13 10:35:39;;;;;;;;;;;22.50;46.30;;;;;;500023;238;1189;-54
2022/10/13 10:37:40;;;;;;;;;;;22.50;46.10;;;;;;500221;238;1075;-54
2022/10/13 10:39:41;;;;;;;;;;;22.60;46.10;;;;;;500014;238;1177;-54
2022/10/13 10:41:43;;;;;;;;;;;22.60;46.00;;;;;;500117;238;1118;-54
2022/10/13 10:43:44;;;;;;;;;;;22.60;45.90;;;;;;500310;238;1162;-54
2022/10/13 10:45:46;;;;;;;;;;;22.70;45.90;;;;;;500219;238;1110;-54
2022/10/13 10:47:47;;;;;;;;;;;22.70;45.70;;;;;;500123;238;1111;-54
2022/10/13 10:49:48;;;;;;;;;;;22.70;45.60;;;;;;500249;238;2112;-53
2022/10/13 10:51:50;;;;;;;;;;;22.70;45.60;;;;;;500004;238;1203;-53
2022/10/13 10:53:51;;;;;;;;;;;22.60;45.50;;;;;;500184;238;1242;-53
2022/10/13 10:55:52;;;;;;;;;;;22.60;45.60;;;;;;500408;238;1355;-53
2022/10/13 10:57:54;;;;;;;;;;;22.70;45.50;;;;;;500188;238;1325;-53
2022/10/13 10:59:55;;;;;;;;;;;22.70;45.40;;;;;;500132;238;1127;-54
2022/10/13 11:01:57;;;;;;;;;;;22.70;45.40;;;;;;500026;238;1140;-54
2022/10/13 11:03:58;;;;;;;;;;;22.70;45.30;;;;;;500010;238;1171;-54
2022/10/13 11:05:59;;;;;;;;;;;22.70;45.20;;;;;;500213;238;1149;-54
2022/10/13 11:08:00;;;;;;;;;;;22.70;45.00;;;;;;500448;238;2156;-54
2022/10/13 11:10:02;;;;;;;;;;;22.70;45.00;;;;;;500259;238;1141;-54
2022/10/13 11:12:03;;;;;;;;;;;22.70;45.00;;;;;;500194;238;1164;-53
2022/10/13 11:14:04;;;;;;;;;;;22.70;45.00;;;;;;500102;238;1256;-54
2022/10/13 11:16:06;;;;;;;;;;;22.70;45.10;;;;;;500173;238;1118;-53
2022/10/13 11:18:07;;;;;;;;;;;22.70;45.00;;;;;;500096;238;1152;-54
2022/10/13 11:20:08;;;;;;;;;;;22.70;45.00;;;;;;500475;238;1156;-54
2022/10/13 11:22:10;;;;;;;;;;;22.70;45.00;;;;;;500347;238;1185;-54
2022/10/13 11:24:11;;;;;;;;;;;22.70;44.80;;;;;;500206;238;1115;-54
2022/10/13 11:26:12;;;;;;;;;;;22.70;44.80;;;;;;500347;238;1140;-54
2022/10/13 11:28:14;;;;;;;;;;;22.70;44.70;;;;;;499918;238;2191;-53
2022/10/13 11:30:15;;;;;;;;;;;22.70;44.80;;;;;;500091;238;1201;-54
2022/10/13 11:32:17;;;;;;;;;;;22.70;44.70;;;;;;500085;238;1244;-54
2022/10/13 11:34:23;;;;;;;;;;;22.70;43.80;;;;;;502466;234;1172;-53
2022/10/13 11:36:24;;;;;;;;;;;22.70;44.60;;;;;;491544;241;1182;-53
2022/10/13 11:38:26;;;;;;;;;;;22.70;44.50;;;;;;491459;240;1615;-53
2022/10/13 11:40:27;;;;;;;;;;;22.70;44.40;;;;;;491408;240;1303;-53
2022/10/13 11:42:28;;;;;;;;;;;22.70;44.50;;;;;;491533;240;1229;-53
2022/10/13 11:44:30;;;;;;;;;;;22.70;44.50;;;;;;491519;240;1265;-53
2022/10/13 11:46:31;;;;;;;;;;;22.70;44.40;;;;;;491472;240;1171;-53
2022/10/13 11:48:32;;;;;;;;;;;22.70;44.40;;;;;;491239;240;1334;-53
2022/10/13 11:50:34;;;;;;;;;;;22.70;44.40;;;;;;491281;240;1579;-53
2022/10/13 11:52:36;;;;;;;;;;;22.70;44.20;;;;;;491320;240;2192;-53
2022/10/13 11:54:37;;;;;;;;;;;22.80;44.40;;;;;;491215;240;2035;-53
2022/10/13 11:56:38;;;;;;;;;;;22.70;44.20;;;;;;491330;240;1337;-53
2022/10/13 11:58:39;;;;;;;;;;;22.70;44.20;;;;;;491306;240;1211;-53
2022/10/13 12:00:41;;;;;;;;;;;22.70;44.30;;;;;;491150;240;1251;-53
2022/10/13 12:02:42;;;;;;;;;;;22.80;44.20;;;;;;491218;240;1220;-52
2022/10/13 12:04:43;;;;;;;;;;;22.70;44.20;;;;;;491221;240;1232;-53
2022/10/13 12:06:45;;;;;;;;;;;22.70;44.10;;;;;;491334;240;1231;-53
2022/10/13 12:08:46;;;;;;;;;;;22.80;44.10;;;;;;491395;240;1186;-53
2022/10/13 12:10:47;;;;;;;;;;;22.80;44.10;;;;;;491453;240;1261;-52
2022/10/13 12:12:49;;;;;;;;;;;22.70;44.10;;;;;;491406;240;2212;-53
2022/10/13 12:14:50;;;;;;;;;;;22.70;44.10;;;;;;491307;240;1213;-52
2022/10/13 12:16:51;;;;;;;;;;;22.80;44.00;;;;;;491499;240;1211;-53
2022/10/13 12:18:53;;;;;;;;;;;22.80;44.00;;;;;;491568;240;1369;-53
2022/10/13 12:20:54;;;;;;;;;;;22.70;43.90;;;;;;491532;240;1224;-53
2022/10/13 12:22:56;;;;;;;;;;;22.70;44.10;;;;;;491543;240;1179;-53
2022/10/13 12:24:57;;;;;;;;;;;22.70;44.30;;;;;;491350;240;1110;-53
2022/10/13 12:26:59;;;;;;;;;;;22.70;44.50;;;;;;491156;240;1306;-53
2022/10/13 12:29:00;;;;;;;;;;;22.70;44.60;;;;;;491331;240;1181;-52
2022/10/13 12:31:01;;;;;;;;;;;22.70;44.70;;;;;;491430;240;1345;-53
2022/10/13 12:33:03;;;;;;;;;;;22.60;44.80;;;;;;491364;240;2189;-53
2022/10/13 12:35:04;;;;;;;;;;;22.70;45.00;;;;;;491452;240;1637;-53
2022/10/13 12:37:05;;;;;;;;;;;22.70;45.00;;;;;;491546;240;1143;-53
2022/10/13 12:39:07;;;;;;;;;;;22.60;45.00;;;;;;491432;240;1363;-53
2022/10/13 12:41:08;;;;;;;;;;;22.70;45.00;;;;;;491536;240;1262;-52
2022/10/13 12:43:09;;;;;;;;;;;22.70;45.00;;;;;;491515;240;1143;-53